sensor_id;sensor_type;location;lat;lon;timestamp;temperature;humidity
48998;DHT22;34807;51.456;7.244;2022-09-30T00:02:09;10.30;90.00
48998;DHT22;34807;51.456;7.244;2022-09-30T00:04:36;10.30;90.00
48998;DHT22;34807;51.456;7.244;2022-09-30T00:07:02;10.30;90.00
48998;DHT22;34807;51.456;7.244;2022-09-30T00:09:27;10.30;90.00
48998;DHT22;34807;51.456;7.244;2022-09-30T00:11:53;10.30;90.00
48998;DHT22;34807;51.456;7.244;2022-09-30T00:14:19;10.30;90.00
48998;DHT22;34807;51.456;7.244;2022-09-30T00:16:45;10.30;90.00
48998;DHT22;34807;51.456;7.244;2022-09-30T00:19:11;10.20;90.00
48998;DHT22;34807;51.456;7.244;2022-09-30T00:21:36;10.20;90.00
48998;DHT22;34807;51.456;7.244;2022-09-30T00:24:03;10.20;90.00
48998;DHT22;34807;51.456;7.244;2022-09-30T00:26:29;10.20;90.00
48998;DHT22;34807;51.456;7.244;2022-09-30T00:28:56;10.20;90.00
48998;DHT22;34807;51.456;7.244;2022-09-30T00:31:23;10.20;90.00
48998;DHT22;34807;51.456;7.244;2022-09-30T00:33:48;10.20;90.00
48998;DHT22;34807;51.456;7.244;2022-09-30T00:39:02;10.10;90.00
48998;DHT22;34807;51.456;7.244;2022-09-30T00:41:28;10.10;90.00
48998;DHT22;34807;51.456;7.244;2022-09-30T00:43:54;10.10;90.00
48998;DHT22;34807;51.456;7.244;2022-09-30T00:48:51;10.10;90.00
48998;DHT22;34807;51.456;7.244;2022-09-30T00:51:38;10.10;90.00
48998;DHT22;34807;51.456;7.244;2022-09-30T00:54:06;10.10;90.00
48998;DHT22;34807;51.456;7.244;2022-09-30T00:56:36;10.00;90.00
48998;DHT22;34807;51.456;7.244;2022-09-30T00:59:04;10.10;90.00
48998;DHT22;34807;51.456;7.244;2022-09-30T01:01:31;10.00;90.00
48998;DHT22;34807;51.456;7.244;2022-09-30T01:04:00;10.00;90.00
48998;DHT22;34807;51.456;7.244;2022-09-30T01:06:27;10.00;90.00
48998;DHT22;34807;51.456;7.244;2022-09-30T01:08:52;10.00;90.00
48998;DHT22;34807;51.456;7.244;2022-09-30T01:11:19;10.00;90.00
48998;DHT22;34807;51.456;7.244;2022-09-30T01:13:46;10.00;90.00
48998;DHT22;34807;51.456;7.244;2022-09-30T01:21:36;10.00;89.80
48998;DHT22;34807;51.456;7.244;2022-09-30T01:42:08;10.00;89.30
48998;DHT22;34807;51.456;7.244;2022-09-30T01:47:00;10.00;89.20
48998;DHT22;34807;51.456;7.244;2022-09-30T01:51:57;10.00;89.20
48998;DHT22;34807;51.456;7.244;2022-09-30T01:54:34;10.00;89.10
48998;DHT22;34807;51.456;7.244;2022-09-30T01:59:46;9.90;89.10
48998;DHT22;34807;51.456;7.244;2022-09-30T02:02:18;9.90;89.20
48998;DHT22;34807;51.456;7.244;2022-09-30T02:04:52;9.90;89.10
48998;DHT22;34807;51.456;7.244;2022-09-30T02:07:23;9.90;89.10
48998;DHT22;34807;51.456;7.244;2022-09-30T02:09:54;9.90;89.10
48998;DHT22;34807;51.456;7.244;2022-09-30T02:12:22;9.90;89.10
48998;DHT22;34807;51.456;7.244;2022-09-30T02:14:51;9.90;89.10
48998;DHT22;34807;51.456;7.244;2022-09-30T02:17:21;9.90;89.10
48998;DHT22;34807;51.456;7.244;2022-09-30T02:20:04;9.90;89.10
48998;DHT22;34807;51.456;7.244;2022-09-30T02:22:37;9.90;89.10
48998;DHT22;34807;51.456;7.244;2022-09-30T02:25:08;9.90;89.10
48998;DHT22;34807;51.456;7.244;2022-09-30T02:27:39;9.80;89.00
48998;DHT22;34807;51.456;7.244;2022-09-30T02:30:07;9.80;89.00
48998;DHT22;34807;51.456;7.244;2022-09-30T02:32:34;9.80;89.00
48998;DHT22;34807;51.456;7.244;2022-09-30T02:35:04;9.80;89.10
48998;DHT22;34807;51.456;7.244;2022-09-30T02:37:33;9.80;89.00
48998;DHT22;34807;51.456;7.244;2022-09-30T02:40:02;9.80;89.10
48998;DHT22;34807;51.456;7.244;2022-09-30T02:42:30;9.80;89.10
48998;DHT22;34807;51.456;7.244;2022-09-30T02:45:00;9.80;89.00
48998;DHT22;34807;51.456;7.244;2022-09-30T02:52:37;9.80;89.00
48998;DHT22;34807;51.456;7.244;2022-09-30T02:55:24;9.70;88.90
48998;DHT22;34807;51.456;7.244;2022-09-30T02:58:07;9.70;88.90
48998;DHT22;34807;51.456;7.244;2022-09-30T03:00:33;9.70;88.90
48998;DHT22;34807;51.456;7.244;2022-09-30T03:03:00;9.70;88.90
48998;DHT22;34807;51.456;7.244;2022-09-30T03:05:27;9.70;88.90
48998;DHT22;34807;51.456;7.244;2022-09-30T03:07:54;9.70;88.80
48998;DHT22;34807;51.456;7.244;2022-09-30T03:10:19;9.60;88.80
48998;DHT22;34807;51.456;7.244;2022-09-30T03:25:27;9.60;88.80
48998;DHT22;34807;51.456;7.244;2022-09-30T03:30:45;9.60;88.80
48998;DHT22;34807;51.456;7.244;2022-09-30T03:33:22;9.60;88.70
48998;DHT22;34807;51.456;7.244;2022-09-30T03:36:52;9.60;88.70
48998;DHT22;34807;51.456;7.244;2022-09-30T03:38:57;9.60;88.80
48998;DHT22;34807;51.456;7.244;2022-09-30T03:41:39;9.50;88.70
48998;DHT22;34807;51.456;7.244;2022-09-30T03:47:05;9.50;88.70
48998;DHT22;34807;51.456;7.244;2022-09-30T03:49:40;9.50;88.60
48998;DHT22;34807;51.456;7.244;2022-09-30T03:52:08;9.50;88.60
48998;DHT22;34807;51.456;7.244;2022-09-30T03:54:42;9.50;88.60
48998;DHT22;34807;51.456;7.244;2022-09-30T03:57:09;9.50;88.60
48998;DHT22;34807;51.456;7.244;2022-09-30T03:59:34;9.50;88.60
48998;DHT22;34807;51.456;7.244;2022-09-30T04:02:00;9.40;88.60
48998;DHT22;34807;51.456;7.244;2022-09-30T04:04:25;9.40;88.60
48998;DHT22;34807;51.456;7.244;2022-09-30T04:06:51;9.40;88.60
48998;DHT22;34807;51.456;7.244;2022-09-30T04:09:16;9.40;88.60
48998;DHT22;34807;51.456;7.244;2022-09-30T04:11:42;9.40;88.60
48998;DHT22;34807;51.456;7.244;2022-09-30T04:14:07;9.40;88.60
48998;DHT22;34807;51.456;7.244;2022-09-30T04:16:33;9.40;88.60
48998;DHT22;34807;51.456;7.244;2022-09-30T04:18:58;9.40;88.60
48998;DHT22;34807;51.456;7.244;2022-09-30T04:21:24;9.40;88.50
48998;DHT22;34807;51.456;7.244;2022-09-30T04:23:53;9.40;88.50
48998;DHT22;34807;51.456;7.244;2022-09-30T04:26:18;9.40;88.50
48998;DHT22;34807;51.456;7.244;2022-09-30T04:28:44;9.30;88.40
48998;DHT22;34807;51.456;7.244;2022-09-30T04:31:10;9.30;88.50
48998;DHT22;34807;51.456;7.244;2022-09-30T04:33:36;9.40;88.40
48998;DHT22;34807;51.456;7.244;2022-09-30T04:36:02;9.40;88.40
48998;DHT22;34807;51.456;7.244;2022-09-30T04:38:28;9.30;88.50
48998;DHT22;34807;51.456;7.244;2022-09-30T04:40:54;9.30;88.40
48998;DHT22;34807;51.456;7.244;2022-09-30T04:43:20;9.30;88.40
48998;DHT22;34807;51.456;7.244;2022-09-30T04:45:47;9.30;88.40
48998;DHT22;34807;51.456;7.244;2022-09-30T04:48:15;9.30;88.40
48998;DHT22;34807;51.456;7.244;2022-09-30T04:50:41;9.30;88.40
48998;DHT22;34807;51.456;7.244;2022-09-30T04:53:07;9.30;88.40
48998;DHT22;34807;51.456;7.244;2022-09-30T04:55:33;9.30;88.40
48998;DHT22;34807;51.456;7.244;2022-09-30T04:57:58;9.30;88.40
48998;DHT22;34807;51.456;7.244;2022-09-30T05:00:24;9.20;88.40
48998;DHT22;34807;51.456;7.244;2022-09-30T05:02:50;9.20;88.30
48998;DHT22;34807;51.456;7.244;2022-09-30T05:05:15;9.20;88.30
48998;DHT22;34807;51.456;7.244;2022-09-30T05:07:42;9.20;88.30
48998;DHT22;34807;51.456;7.244;2022-09-30T05:10:08;9.20;88.30
48998;DHT22;34807;51.456;7.244;2022-09-30T05:12:34;9.20;88.40
48998;DHT22;34807;51.456;7.244;2022-09-30T05:15:00;9.20;88.40
48998;DHT22;34807;51.456;7.244;2022-09-30T05:17:25;9.20;88.40
48998;DHT22;34807;51.456;7.244;2022-09-30T05:19:53;9.20;88.30
48998;DHT22;34807;51.456;7.244;2022-09-30T05:22:19;9.20;88.30
48998;DHT22;34807;51.456;7.244;2022-09-30T05:24:44;9.20;88.30
48998;DHT22;34807;51.456;7.244;2022-09-30T05:27:10;9.10;88.30
48998;DHT22;34807;51.456;7.244;2022-09-30T05:29:35;9.10;88.30
48998;DHT22;34807;51.456;7.244;2022-09-30T05:32:01;9.10;88.30
48998;DHT22;34807;51.456;7.244;2022-09-30T05:34:26;9.10;88.30
48998;DHT22;34807;51.456;7.244;2022-09-30T05:36:52;9.10;88.30
48998;DHT22;34807;51.456;7.244;2022-09-30T05:39:17;9.10;88.30
48998;DHT22;34807;51.456;7.244;2022-09-30T05:41:42;9.10;88.30
48998;DHT22;34807;51.456;7.244;2022-09-30T05:44:08;9.10;88.30
48998;DHT22;34807;51.456;7.244;2022-09-30T05:46:34;9.10;88.30
48998;DHT22;34807;51.456;7.244;2022-09-30T05:48:59;9.10;88.30
48998;DHT22;34807;51.456;7.244;2022-09-30T05:51:25;9.10;88.30
48998;DHT22;34807;51.456;7.244;2022-09-30T05:53:50;9.10;88.30
48998;DHT22;34807;51.456;7.244;2022-09-30T05:56:16;9.10;88.30
48998;DHT22;34807;51.456;7.244;2022-09-30T05:58:42;9.10;88.30
48998;DHT22;34807;51.456;7.244;2022-09-30T06:01:09;9.10;88.30
48998;DHT22;34807;51.456;7.244;2022-09-30T06:03:34;9.10;88.30
48998;DHT22;34807;51.456;7.244;2022-09-30T06:06:00;9.10;88.20
48998;DHT22;34807;51.456;7.244;2022-09-30T06:08:26;9.10;88.20
48998;DHT22;34807;51.456;7.244;2022-09-30T06:10:51;9.10;88.20
48998;DHT22;34807;51.456;7.244;2022-09-30T06:13:17;9.10;88.20
48998;DHT22;34807;51.456;7.244;2022-09-30T06:15:43;9.10;88.20
48998;DHT22;34807;51.456;7.244;2022-09-30T06:18:09;9.10;88.20
48998;DHT22;34807;51.456;7.244;2022-09-30T06:20:37;9.10;88.20
48998;DHT22;34807;51.456;7.244;2022-09-30T06:23:03;9.10;88.20
48998;DHT22;34807;51.456;7.244;2022-09-30T06:25:29;9.10;88.20
48998;DHT22;34807;51.456;7.244;2022-09-30T06:27:55;9.10;88.20
48998;DHT22;34807;51.456;7.244;2022-09-30T06:30:21;9.10;88.30
48998;DHT22;34807;51.456;7.244;2022-09-30T06:32:46;9.10;88.30
48998;DHT22;34807;51.456;7.244;2022-09-30T06:35:12;9.00;88.30
48998;DHT22;34807;51.456;7.244;2022-09-30T06:37:37;9.10;88.30
48998;DHT22;34807;51.456;7.244;2022-09-30T06:40:03;9.10;88.20
48998;DHT22;34807;51.456;7.244;2022-09-30T06:42:29;9.10;88.30
48998;DHT22;34807;51.456;7.244;2022-09-30T06:44:55;9.10;88.20
48998;DHT22;34807;51.456;7.244;2022-09-30T06:47:20;9.10;88.30
48998;DHT22;34807;51.456;7.244;2022-09-30T06:49:46;9.10;88.40
48998;DHT22;34807;51.456;7.244;2022-09-30T06:52:11;9.10;88.40
48998;DHT22;34807;51.456;7.244;2022-09-30T06:54:40;9.10;88.30
48998;DHT22;34807;51.456;7.244;2022-09-30T06:57:07;9.10;88.40
48998;DHT22;34807;51.456;7.244;2022-09-30T06:59:33;9.10;88.40
48998;DHT22;34807;51.456;7.244;2022-09-30T07:01:59;9.10;88.50
48998;DHT22;34807;51.456;7.244;2022-09-30T07:04:24;9.10;88.50
48998;DHT22;34807;51.456;7.244;2022-09-30T07:06:50;9.10;88.60
48998;DHT22;34807;51.456;7.244;2022-09-30T07:09:15;9.10;88.60
48998;DHT22;34807;51.456;7.244;2022-09-30T07:11:42;9.10;88.70
48998;DHT22;34807;51.456;7.244;2022-09-30T07:14:07;9.10;88.70
48998;DHT22;34807;51.456;7.244;2022-09-30T07:16:34;9.10;88.70
48998;DHT22;34807;51.456;7.244;2022-09-30T07:19:00;9.10;88.60
48998;DHT22;34807;51.456;7.244;2022-09-30T07:21:26;9.10;88.70
48998;DHT22;34807;51.456;7.244;2022-09-30T07:23:52;9.10;88.80
48998;DHT22;34807;51.456;7.244;2022-09-30T07:26:20;9.10;88.80
48998;DHT22;34807;51.456;7.244;2022-09-30T07:28:45;9.10;88.90
48998;DHT22;34807;51.456;7.244;2022-09-30T07:31:12;9.20;88.90
48998;DHT22;34807;51.456;7.244;2022-09-30T07:33:40;9.10;88.90
48998;DHT22;34807;51.456;7.244;2022-09-30T07:36:06;9.20;88.90
48998;DHT22;34807;51.456;7.244;2022-09-30T07:38:33;9.20;88.80
48998;DHT22;34807;51.456;7.244;2022-09-30T07:41:01;9.20;88.80
48998;DHT22;34807;51.456;7.244;2022-09-30T07:43:27;9.20;88.80
48998;DHT22;34807;51.456;7.244;2022-09-30T07:46:05;9.30;88.70
48998;DHT22;34807;51.456;7.244;2022-09-30T07:48:31;9.30;88.60
48998;DHT22;34807;51.456;7.244;2022-09-30T07:51:03;9.30;88.60
48998;DHT22;34807;51.456;7.244;2022-09-30T07:53:28;9.30;88.70
48998;DHT22;34807;51.456;7.244;2022-09-30T07:55:54;9.40;88.70
48998;DHT22;34807;51.456;7.244;2022-09-30T07:58:19;9.40;88.60
48998;DHT22;34807;51.456;7.244;2022-09-30T08:00:47;9.40;88.60
48998;DHT22;34807;51.456;7.244;2022-09-30T08:03:16;9.40;88.60
48998;DHT22;34807;51.456;7.244;2022-09-30T08:05:41;9.50;88.60
48998;DHT22;34807;51.456;7.244;2022-09-30T08:08:13;9.50;88.80
48998;DHT22;34807;51.456;7.244;2022-09-30T08:10:39;9.50;89.60
48998;DHT22;34807;51.456;7.244;2022-09-30T08:13:04;9.60;88.80
48998;DHT22;34807;51.456;7.244;2022-09-30T08:15:30;9.60;88.50
48998;DHT22;34807;51.456;7.244;2022-09-30T08:17:56;9.70;88.60
48998;DHT22;34807;51.456;7.244;2022-09-30T08:20:21;9.70;89.30
48998;DHT22;34807;51.456;7.244;2022-09-30T08:22:50;9.80;88.50
48998;DHT22;34807;51.456;7.244;2022-09-30T08:25:16;9.80;88.30
48998;DHT22;34807;51.456;7.244;2022-09-30T08:27:41;9.90;88.60
48998;DHT22;34807;51.456;7.244;2022-09-30T08:30:07;9.90;88.30
48998;DHT22;34807;51.456;7.244;2022-09-30T08:32:32;9.90;88.30
48998;DHT22;34807;51.456;7.244;2022-09-30T08:34:58;9.90;89.90
48998;DHT22;34807;51.456;7.244;2022-09-30T08:37:23;10.00;89.60
48998;DHT22;34807;51.456;7.244;2022-09-30T08:39:49;10.00;88.30
48998;DHT22;34807;51.456;7.244;2022-09-30T08:45:06;10.10;89.20
48998;DHT22;34807;51.456;7.244;2022-09-30T08:52:48;10.20;88.90
48998;DHT22;34807;51.456;7.244;2022-09-30T08:55:22;10.20;89.00
48998;DHT22;34807;51.456;7.244;2022-09-30T08:57:48;10.30;88.50
48998;DHT22;34807;51.456;7.244;2022-09-30T09:00:15;10.30;89.10
48998;DHT22;34807;51.456;7.244;2022-09-30T09:02:49;10.30;88.70
48998;DHT22;34807;51.456;7.244;2022-09-30T09:05:22;10.40;88.80
48998;DHT22;34807;51.456;7.244;2022-09-30T09:15:44;10.50;89.00
48998;DHT22;34807;51.456;7.244;2022-09-30T09:20:58;10.60;88.60
48998;DHT22;34807;51.456;7.244;2022-09-30T09:23:25;10.60;89.10
48998;DHT22;34807;51.456;7.244;2022-09-30T09:25:52;10.60;88.40
48998;DHT22;34807;51.456;7.244;2022-09-30T09:30:52;10.70;88.30
48998;DHT22;34807;51.456;7.244;2022-09-30T09:33:19;10.70;88.40
48998;DHT22;34807;51.456;7.244;2022-09-30T09:48:45;10.90;87.80
48998;DHT22;34807;51.456;7.244;2022-09-30T09:56:16;11.00;87.60
48998;DHT22;34807;51.456;7.244;2022-09-30T10:01:29;11.10;87.70
48998;DHT22;34807;51.456;7.244;2022-09-30T10:04:07;11.20;87.90
48998;DHT22;34807;51.456;7.244;2022-09-30T10:06:55;11.20;87.80
48998;DHT22;34807;51.456;7.244;2022-09-30T10:11:47;11.30;88.00
48998;DHT22;34807;51.456;7.244;2022-09-30T10:14:16;11.30;87.60
48998;DHT22;34807;51.456;7.244;2022-09-30T10:16:44;11.40;87.30
48998;DHT22;34807;51.456;7.244;2022-09-30T10:19:26;11.40;87.40
48998;DHT22;34807;51.456;7.244;2022-09-30T10:24:37;11.50;87.20
48998;DHT22;34807;51.456;7.244;2022-09-30T10:27:03;11.60;87.30
48998;DHT22;34807;51.456;7.244;2022-09-30T10:29:31;11.60;87.60
48998;DHT22;34807;51.456;7.244;2022-09-30T10:32:01;11.70;87.40
48998;DHT22;34807;51.456;7.244;2022-09-30T10:34:31;11.70;87.00
48998;DHT22;34807;51.456;7.244;2022-09-30T10:36:58;11.70;87.50
48998;DHT22;34807;51.456;7.244;2022-09-30T10:39:25;11.80;87.20
48998;DHT22;34807;51.456;7.244;2022-09-30T10:41:59;11.80;87.50
48998;DHT22;34807;51.456;7.244;2022-09-30T10:44:25;11.80;87.70
48998;DHT22;34807;51.456;7.244;2022-09-30T10:46:52;11.90;87.30
48998;DHT22;34807;51.456;7.244;2022-09-30T10:49:27;12.00;87.90
48998;DHT22;34807;51.456;7.244;2022-09-30T10:51:55;12.00;87.70
48998;DHT22;34807;51.456;7.244;2022-09-30T10:57:05;12.10;87.60
48998;DHT22;34807;51.456;7.244;2022-09-30T10:59:37;12.20;87.20
48998;DHT22;34807;51.456;7.244;2022-09-30T11:04:48;12.30;87.70
48998;DHT22;34807;51.456;7.244;2022-09-30T11:07:26;12.40;87.20
48998;DHT22;34807;51.456;7.244;2022-09-30T11:12:37;12.50;87.40
48998;DHT22;34807;51.456;7.244;2022-09-30T11:20:11;12.90;86.70
48998;DHT22;34807;51.456;7.244;2022-09-30T11:22:48;12.90;86.70
48998;DHT22;34807;51.456;7.244;2022-09-30T11:25:34;12.90;86.80
48998;DHT22;34807;51.456;7.244;2022-09-30T11:28:14;13.00;86.90
48998;DHT22;34807;51.456;7.244;2022-09-30T11:31:05;13.10;86.50
48998;DHT22;34807;51.456;7.244;2022-09-30T11:36:25;13.20;86.40
48998;DHT22;34807;51.456;7.244;2022-09-30T11:41:28;13.40;85.60
48998;DHT22;34807;51.456;7.244;2022-09-30T11:44:11;13.60;85.60
48998;DHT22;34807;51.456;7.244;2022-09-30T11:49:23;13.80;85.00
48998;DHT22;34807;51.456;7.244;2022-09-30T11:59:48;14.20;84.30
48998;DHT22;34807;51.456;7.244;2022-09-30T12:04:43;14.40;84.10
48998;DHT22;34807;51.456;7.244;2022-09-30T12:16:59;14.70;84.00
48998;DHT22;34807;51.456;7.244;2022-09-30T12:19:40;14.80;84.30
48998;DHT22;34807;51.456;7.244;2022-09-30T12:22:19;14.80;84.40
48998;DHT22;34807;51.456;7.244;2022-09-30T12:24:46;14.80;84.90
48998;DHT22;34807;51.456;7.244;2022-09-30T12:27:19;14.90;84.40
48998;DHT22;34807;51.456;7.244;2022-09-30T12:29:54;14.90;84.20
48998;DHT22;34807;51.456;7.244;2022-09-30T12:33:04;15.00;84.70
48998;DHT22;34807;51.456;7.244;2022-09-30T12:38:06;15.10;85.10
48998;DHT22;34807;51.456;7.244;2022-09-30T12:45:37;15.10;84.90
48998;DHT22;34807;51.456;7.244;2022-09-30T12:48:06;15.20;84.90
48998;DHT22;34807;51.456;7.244;2022-09-30T12:50:34;15.30;84.80
48998;DHT22;34807;51.456;7.244;2022-09-30T12:53:14;15.30;85.40
48998;DHT22;34807;51.456;7.244;2022-09-30T12:55:42;15.30;85.70
48998;DHT22;34807;51.456;7.244;2022-09-30T12:58:15;15.40;85.00
48998;DHT22;34807;51.456;7.244;2022-09-30T13:00:56;15.40;85.70
48998;DHT22;34807;51.456;7.244;2022-09-30T13:03:24;15.50;86.00
48998;DHT22;34807;51.456;7.244;2022-09-30T13:05:51;15.50;85.50
48998;DHT22;34807;51.456;7.244;2022-09-30T13:10:43;15.60;86.10
48998;DHT22;34807;51.456;7.244;2022-09-30T13:23:40;15.70;86.50
48998;DHT22;34807;51.456;7.244;2022-09-30T13:28:46;15.80;86.00
48998;DHT22;34807;51.456;7.244;2022-09-30T13:31:13;15.90;86.80
48998;DHT22;34807;51.456;7.244;2022-09-30T13:33:41;15.90;86.40
48998;DHT22;34807;51.456;7.244;2022-09-30T13:36:14;15.90;86.10
48998;DHT22;34807;51.456;7.244;2022-09-30T13:38:40;15.90;86.20
48998;DHT22;34807;51.456;7.244;2022-09-30T13:46:09;15.90;85.60
48998;DHT22;34807;51.456;7.244;2022-09-30T13:48:36;16.00;86.10
48998;DHT22;34807;51.456;7.244;2022-09-30T13:51:06;16.00;85.80
48998;DHT22;34807;51.456;7.244;2022-09-30T13:53:36;16.10;84.40
48998;DHT22;34807;51.456;7.244;2022-09-30T14:12:05;15.90;86.40
48998;DHT22;34807;51.456;7.244;2022-09-30T14:17:34;16.00;86.40
48998;DHT22;34807;51.456;7.244;2022-09-30T14:20:25;16.00;86.00
48998;DHT22;34807;51.456;7.244;2022-09-30T14:22:52;16.00;86.10
48998;DHT22;34807;51.456;7.244;2022-09-30T14:25:19;16.00;85.20
48998;DHT22;34807;51.456;7.244;2022-09-30T14:27:54;16.00;85.60
48998;DHT22;34807;51.456;7.244;2022-09-30T14:30:23;16.00;85.60
48998;DHT22;34807;51.456;7.244;2022-09-30T14:32:52;16.00;85.60
48998;DHT22;34807;51.456;7.244;2022-09-30T14:35:25;16.00;84.90
48998;DHT22;34807;51.456;7.244;2022-09-30T14:40:36;16.00;85.40
48998;DHT22;34807;51.456;7.244;2022-09-30T14:43:05;16.00;84.80
48998;DHT22;34807;51.456;7.244;2022-09-30T14:45:32;16.00;84.40
48998;DHT22;34807;51.456;7.244;2022-09-30T14:48:00;16.10;85.30
48998;DHT22;34807;51.456;7.244;2022-09-30T14:50:27;16.10;85.10
48998;DHT22;34807;51.456;7.244;2022-09-30T14:52:55;16.10;84.60
48998;DHT22;34807;51.456;7.244;2022-09-30T14:55:33;16.10;84.40
48998;DHT22;34807;51.456;7.244;2022-09-30T15:00:43;16.20;84.50
48998;DHT22;34807;51.456;7.244;2022-09-30T15:03:11;16.20;84.50
48998;DHT22;34807;51.456;7.244;2022-09-30T15:05:37;16.20;84.50
48998;DHT22;34807;51.456;7.244;2022-09-30T15:08:08;16.20;83.50
48998;DHT22;34807;51.456;7.244;2022-09-30T15:10:35;16.20;83.90
48998;DHT22;34807;51.456;7.244;2022-09-30T15:13:00;16.10;83.50
48998;DHT22;34807;51.456;7.244;2022-09-30T15:15:34;16.10;83.90
48998;DHT22;34807;51.456;7.244;2022-09-30T15:18:20;16.10;83.70
48998;DHT22;34807;51.456;7.244;2022-09-30T15:20:45;16.10;84.20
48998;DHT22;34807;51.456;7.244;2022-09-30T15:23:14;16.00;84.00
48998;DHT22;34807;51.456;7.244;2022-09-30T15:25:40;16.00;83.90
48998;DHT22;34807;51.456;7.244;2022-09-30T15:28:10;16.00;83.90
48998;DHT22;34807;51.456;7.244;2022-09-30T15:30:36;16.00;84.10
48998;DHT22;34807;51.456;7.244;2022-09-30T15:33:03;16.10;84.20
48998;DHT22;34807;51.456;7.244;2022-09-30T15:35:29;16.10;83.20
48998;DHT22;34807;51.456;7.244;2022-09-30T15:38:04;16.10;84.10
48998;DHT22;34807;51.456;7.244;2022-09-30T15:40:30;16.10;83.90
48998;DHT22;34807;51.456;7.244;2022-09-30T15:43:11;16.10;83.90
48998;DHT22;34807;51.456;7.244;2022-09-30T15:45:44;16.10;84.00
48998;DHT22;34807;51.456;7.244;2022-09-30T15:50:51;16.20;83.90
48998;DHT22;34807;51.456;7.244;2022-09-30T15:55:44;16.10;83.80
48998;DHT22;34807;51.456;7.244;2022-09-30T16:00:51;16.00;84.20
48998;DHT22;34807;51.456;7.244;2022-09-30T16:05:42;15.90;84.50
48998;DHT22;34807;51.456;7.244;2022-09-30T16:08:08;15.90;84.30
48998;DHT22;34807;51.456;7.244;2022-09-30T16:10:34;15.80;84.60
48998;DHT22;34807;51.456;7.244;2022-09-30T16:13:02;15.80;84.40
48998;DHT22;34807;51.456;7.244;2022-09-30T16:15:28;15.70;85.00
48998;DHT22;34807;51.456;7.244;2022-09-30T16:17:54;15.70;85.20
48998;DHT22;34807;51.456;7.244;2022-09-30T16:20:22;15.70;85.20
48998;DHT22;34807;51.456;7.244;2022-09-30T16:22:52;15.60;85.50
48998;DHT22;34807;51.456;7.244;2022-09-30T16:25:23;15.60;85.60
48998;DHT22;34807;51.456;7.244;2022-09-30T16:27:59;15.60;85.60
48998;DHT22;34807;51.456;7.244;2022-09-30T16:30:25;15.50;85.60
48998;DHT22;34807;51.456;7.244;2022-09-30T16:32:52;15.40;85.50
48998;DHT22;34807;51.456;7.244;2022-09-30T16:35:19;15.40;85.60
48998;DHT22;34807;51.456;7.244;2022-09-30T16:37:45;15.40;85.50
48998;DHT22;34807;51.456;7.244;2022-09-30T16:40:15;15.30;85.60
48998;DHT22;34807;51.456;7.244;2022-09-30T16:42:41;15.30;86.40
48998;DHT22;34807;51.456;7.244;2022-09-30T16:45:09;15.30;85.80
48998;DHT22;34807;51.456;7.244;2022-09-30T16:47:35;15.20;85.80
48998;DHT22;34807;51.456;7.244;2022-09-30T16:50:00;15.10;85.90
48998;DHT22;34807;51.456;7.244;2022-09-30T16:52:26;15.10;86.10
48998;DHT22;34807;51.456;7.244;2022-09-30T16:54:51;15.00;86.20
48998;DHT22;34807;51.456;7.244;2022-09-30T16:57:17;15.00;86.30
48998;DHT22;34807;51.456;7.244;2022-09-30T16:59:42;15.00;86.40
48998;DHT22;34807;51.456;7.244;2022-09-30T17:02:11;14.90;86.50
48998;DHT22;34807;51.456;7.244;2022-09-30T17:04:37;14.90;86.70
48998;DHT22;34807;51.456;7.244;2022-09-30T17:07:03;14.80;86.60
48998;DHT22;34807;51.456;7.244;2022-09-30T17:09:28;14.80;86.70
48998;DHT22;34807;51.456;7.244;2022-09-30T17:11:54;14.70;86.90
48998;DHT22;34807;51.456;7.244;2022-09-30T17:14:20;14.70;86.80
48998;DHT22;34807;51.456;7.244;2022-09-30T17:16:45;14.70;86.90
48998;DHT22;34807;51.456;7.244;2022-09-30T17:19:11;14.60;87.00
48998;DHT22;34807;51.456;7.244;2022-09-30T17:21:36;14.50;87.00
48998;DHT22;34807;51.456;7.244;2022-09-30T17:24:02;14.50;87.10
48998;DHT22;34807;51.456;7.244;2022-09-30T17:26:28;14.50;87.20
48998;DHT22;34807;51.456;7.244;2022-09-30T17:28:54;14.40;87.20
48998;DHT22;34807;51.456;7.244;2022-09-30T17:31:20;14.40;87.20
48998;DHT22;34807;51.456;7.244;2022-09-30T17:33:46;14.30;87.20
48998;DHT22;34807;51.456;7.244;2022-09-30T17:36:12;14.30;87.30
48998;DHT22;34807;51.456;7.244;2022-09-30T17:38:38;14.20;87.30
48998;DHT22;34807;51.456;7.244;2022-09-30T17:41:04;14.20;87.40
48998;DHT22;34807;51.456;7.244;2022-09-30T17:43:48;14.10;87.40
48998;DHT22;34807;51.456;7.244;2022-09-30T17:46:14;14.10;87.50
48998;DHT22;34807;51.456;7.244;2022-09-30T17:48:45;14.00;87.50
48998;DHT22;34807;51.456;7.244;2022-09-30T17:51:12;14.00;87.60
48998;DHT22;34807;51.456;7.244;2022-09-30T17:53:37;14.00;87.60
48998;DHT22;34807;51.456;7.244;2022-09-30T17:58:29;13.90;87.80
48998;DHT22;34807;51.456;7.244;2022-09-30T18:00:54;13.80;87.80
48998;DHT22;34807;51.456;7.244;2022-09-30T18:03:23;13.80;87.90
48998;DHT22;34807;51.456;7.244;2022-09-30T18:05:55;13.80;88.00
48998;DHT22;34807;51.456;7.244;2022-09-30T18:08:22;13.80;88.00
48998;DHT22;34807;51.456;7.244;2022-09-30T18:10:49;13.80;88.00
48998;DHT22;34807;51.456;7.244;2022-09-30T18:13:16;13.70;88.00
48998;DHT22;34807;51.456;7.244;2022-09-30T18:15:43;13.70;88.10
48998;DHT22;34807;51.456;7.244;2022-09-30T18:18:09;13.70;88.10
48998;DHT22;34807;51.456;7.244;2022-09-30T18:20:35;13.60;87.90
48998;DHT22;34807;51.456;7.244;2022-09-30T18:23:00;13.60;88.00
48998;DHT22;34807;51.456;7.244;2022-09-30T18:25:26;13.60;88.00
48998;DHT22;34807;51.456;7.244;2022-09-30T18:27:56;13.60;88.00
48998;DHT22;34807;51.456;7.244;2022-09-30T18:30:21;13.60;88.10
48998;DHT22;34807;51.456;7.244;2022-09-30T18:32:47;13.50;88.10
48998;DHT22;34807;51.456;7.244;2022-09-30T18:35:14;13.50;88.10
48998;DHT22;34807;51.456;7.244;2022-09-30T18:37:41;13.50;88.10
48998;DHT22;34807;51.456;7.244;2022-09-30T18:40:07;13.50;88.20
48998;DHT22;34807;51.456;7.244;2022-09-30T18:42:33;13.50;88.20
48998;DHT22;34807;51.456;7.244;2022-09-30T18:45:05;13.40;88.20
48998;DHT22;34807;51.456;7.244;2022-09-30T18:47:32;13.40;88.20
48998;DHT22;34807;51.456;7.244;2022-09-30T18:49:58;13.40;88.30
48998;DHT22;34807;51.456;7.244;2022-09-30T18:52:23;13.40;88.30
48998;DHT22;34807;51.456;7.244;2022-09-30T18:54:49;13.40;88.30
48998;DHT22;34807;51.456;7.244;2022-09-30T18:57:15;13.40;88.30
48998;DHT22;34807;51.456;7.244;2022-09-30T18:59:40;13.30;88.30
48998;DHT22;34807;51.456;7.244;2022-09-30T19:02:06;13.30;88.40
48998;DHT22;34807;51.456;7.244;2022-09-30T19:04:34;13.30;88.40
48998;DHT22;34807;51.456;7.244;2022-09-30T19:06:59;13.30;88.40
48998;DHT22;34807;51.456;7.244;2022-09-30T19:09:25;13.30;88.40
48998;DHT22;34807;51.456;7.244;2022-09-30T19:11:51;13.30;88.40
48998;DHT22;34807;51.456;7.244;2022-09-30T19:14:17;13.30;88.50
48998;DHT22;34807;51.456;7.244;2022-09-30T19:16:42;13.30;88.60
48998;DHT22;34807;51.456;7.244;2022-09-30T19:19:08;13.30;88.60